createdAt,value
2018-04-06T00:01:52.404Z,101759.84
2018-04-06T00:04:18.347Z,101765.12
2018-04-06T00:06:44.318Z,101760.88
2018-04-06T00:09:10.334Z,101762.62
2018-04-06T00:11:36.276Z,101758.84
2018-04-06T00:14:02.221Z,101767.77
2018-04-06T00:16:28.177Z,101763.16
2018-04-06T00:18:54.110Z,101772.73
2018-04-06T00:21:20.054Z,101767.62
2018-04-06T00:23:46.037Z,101762.20
2018-04-06T00:26:11.993Z,101765.92
2018-04-06T00:28:37.933Z,101758.05
2018-04-06T00:31:03.894Z,101757.39
2018-04-06T00:33:29.864Z,101756.14
2018-04-06T00:35:55.830Z,101755.78
2018-04-06T00:38:21.775Z,101754.51
2018-04-06T00:40:47.757Z,101754.81
2018-04-06T00:43:13.697Z,101758.11
2018-04-06T00:45:39.660Z,101749.84
2018-04-06T00:48:05.602Z,101754.88
2018-04-06T00:50:31.573Z,101751.03
2018-04-06T00:52:57.525Z,101751.70
2018-04-06T00:55:23.490Z,101759.08
2018-04-06T00:57:49.438Z,101754.47
2018-04-06T01:00:15.385Z,101751.70
2018-04-06T01:02:41.328Z,101745.20
2018-04-06T01:05:07.374Z,101742.22
2018-04-06T01:07:33.334Z,101741.98
2018-04-06T01:09:59.289Z,101747.55
2018-04-06T01:12:25.301Z,101749.89
2018-04-06T01:14:51.269Z,101744.79
2018-04-06T01:17:17.223Z,101741.08
2018-04-06T01:19:43.217Z,101738.68
2018-04-06T01:22:09.164Z,101739.89
2018-04-06T01:24:35.116Z,101739.23
2018-04-06T01:27:01.132Z,101738.51
2018-04-06T01:29:27.102Z,101735.69
2018-04-06T01:31:53.041Z,101736.42
2018-04-06T01:34:19.037Z,101738.86
2018-04-06T01:36:44.980Z,101739.83
2018-04-06T01:39:10.951Z,101744.58
2018-04-06T01:41:36.953Z,101744.79
2018-04-06T01:44:02.904Z,101744.25
2018-04-06T01:46:28.873Z,101738.98
2018-04-06T01:48:54.807Z,101735.86
2018-04-06T01:51:20.753Z,101738.27
2018-04-06T01:53:46.709Z,101743.06
2018-04-06T01:56:12.657Z,101738.59
2018-04-06T01:58:38.604Z,101735.42
2018-04-06T02:01:04.566Z,101734.91
2018-04-06T02:03:30.508Z,101736.64
2018-04-06T02:05:56.449Z,101739.19
2018-04-06T02:08:22.393Z,101741.41
2018-04-06T02:10:48.348Z,101744.72
2018-04-06T02:13:14.284Z,101738.86
2018-04-06T02:15:40.237Z,101738.09
2018-04-06T02:18:06.170Z,101736.78
2018-04-06T02:20:32.109Z,101738.02
2018-04-06T02:22:58.050Z,101734.24
2018-04-06T02:25:23.993Z,101734.41
2018-04-06T02:27:49.989Z,101732.20
2018-04-06T02:30:15.931Z,101740.10
2018-04-06T02:32:41.882Z,101738.75
2018-04-06T02:35:07.836Z,101737.27
2018-04-06T02:37:33.818Z,101736.02
2018-04-06T02:39:59.794Z,101741.92
2018-04-06T02:42:25.737Z,101740.98
2018-04-06T02:44:51.693Z,101736.72
2018-04-06T02:47:17.633Z,101732.11
2018-04-06T02:49:43.570Z,101741.09
2018-04-06T02:52:09.547Z,101730.55
2018-04-06T02:54:35.490Z,101729.05
2018-04-06T02:57:01.472Z,101724.27
2018-04-06T02:59:27.405Z,101724.19
2018-04-06T03:01:53.373Z,101720.65
2018-04-06T03:04:19.325Z,101716.77
2018-04-06T03:06:45.278Z,101716.83
2018-04-06T03:09:11.238Z,101717.36
2018-04-06T03:11:37.181Z,101717.38
2018-04-06T03:14:03.145Z,101714.70
2018-04-06T03:16:29.098Z,101718.26
2018-04-06T03:18:55.142Z,101718.98
2018-04-06T03:21:21.077Z,101714.63
2018-04-06T03:23:47.062Z,101710.52
2018-04-06T03:26:13.090Z,101715.52
2018-04-06T03:28:39.051Z,101712.70
2018-04-06T03:31:04.991Z,101714.48
2018-04-06T03:33:30.978Z,101717.69
2018-04-06T03:35:56.926Z,101721.59
2018-04-06T03:38:22.873Z,101720.73
2018-04-06T03:40:48.902Z,101720.57
2018-04-06T03:43:14.842Z,101720.81
2018-04-06T03:45:40.813Z,101721.93
2018-04-06T03:48:06.753Z,101724.70
2018-04-06T03:50:32.697Z,101721.73
2018-04-06T03:52:58.643Z,101727.38
2018-04-06T03:55:24.597Z,101728.47
2018-04-06T03:57:50.549Z,101722.70
2018-04-06T04:00:16.485Z,101733.73
2018-04-06T04:02:42.549Z,101721.52
2018-04-06T04:05:08.605Z,101721.26
2018-04-06T04:07:34.566Z,101723.83
2018-04-06T04:10:00.518Z,101716.63
2018-04-06T04:12:26.455Z,101718.00
2018-04-06T04:14:52.393Z,101718.86
2018-04-06T04:17:18.334Z,101723.10
2018-04-06T04:19:44.333Z,101729.59
2018-04-06T04:22:10.277Z,101733.79
2018-04-06T04:24:36.237Z,101729.00
2018-04-06T04:27:02.193Z,101732.13
2018-04-06T04:29:28.152Z,101723.14
2018-04-06T04:31:54.093Z,101722.34
2018-04-06T04:34:20.046Z,101711.48
2018-04-06T04:36:45.998Z,101701.05
2018-04-06T04:39:11.941Z,101700.28
2018-04-06T04:41:37.886Z,101702.50
2018-04-06T04:44:03.832Z,101710.34
2018-04-06T04:46:29.940Z,101710.36
2018-04-06T04:48:55.965Z,101702.98
2018-04-06T04:51:21.909Z,101709.31
2018-04-06T04:53:47.869Z,101709.22
2018-04-06T04:56:13.805Z,101717.90
2018-04-06T04:58:39.772Z,101710.16
2018-04-06T05:01:05.702Z,101714.17
2018-04-06T05:03:31.662Z,101721.75
2018-04-06T05:05:57.602Z,101717.38
2018-04-06T05:08:23.561Z,101719.16
2018-04-06T05:10:49.497Z,101713.65
2018-04-06T05:13:15.445Z,101708.19
2018-04-06T05:15:41.413Z,101720.14
2018-04-06T05:18:07.371Z,101710.48
2018-04-06T05:20:33.322Z,101717.98
2018-04-06T05:22:59.260Z,101721.70
2018-04-06T05:25:25.231Z,101718.98
2018-04-06T05:27:51.177Z,101723.73
2018-04-06T05:30:17.154Z,101720.67
2018-04-06T05:32:43.117Z,101724.64
2018-04-06T05:35:09.154Z,101725.31
2018-04-06T05:37:35.101Z,101726.14
2018-04-06T05:40:01.053Z,101730.64
2018-04-06T05:42:27.057Z,101720.48
2018-04-06T05:44:53.010Z,101716.54
2018-04-06T05:47:18.946Z,101716.48
2018-04-06T05:49:44.933Z,101715.67
2018-04-06T05:52:11.006Z,101708.63
2018-04-06T05:54:36.958Z,101714.17
2018-04-06T05:57:02.926Z,101709.63
2018-04-06T05:59:28.861Z,101704.54
2018-04-06T06:01:54.813Z,101707.59
2018-04-06T06:04:20.785Z,101708.80
2018-04-06T06:06:46.757Z,101710.63
2018-04-06T06:09:12.714Z,101705.00
2018-04-06T06:11:38.765Z,101706.94
2018-04-06T06:14:04.709Z,101711.03
2018-04-06T06:16:30.681Z,101705.50
2018-04-06T06:18:56.647Z,101703.27
2018-04-06T06:21:22.599Z,101704.81
2018-04-06T06:23:48.533Z,101704.77
2018-04-06T06:26:14.499Z,101706.69
2018-04-06T06:28:40.491Z,101702.89
2018-04-06T06:31:06.442Z,101702.13
2018-04-06T06:33:32.394Z,101706.72
2018-04-06T06:35:58.532Z,101707.63
2018-04-06T06:38:24.485Z,101705.78
2018-04-06T06:40:50.445Z,101701.98
2018-04-06T06:43:16.374Z,101700.37
2018-04-06T06:45:42.405Z,101696.30
2018-04-06T06:48:08.345Z,101693.73
2018-04-06T06:50:34.342Z,101694.10
2018-04-06T06:53:00.407Z,101689.29
2018-04-06T06:55:26.364Z,101690.91
2018-04-06T06:57:52.349Z,101687.36
2018-04-06T07:00:18.285Z,101678.22
2018-04-06T07:02:45.224Z,101672.08
2018-04-06T07:05:11.342Z,101667.23
2018-04-06T07:07:37.366Z,101656.86
2018-04-06T07:10:03.402Z,101645.49
2018-04-06T07:12:29.445Z,101636.42
2018-04-06T07:14:55.443Z,101634.80
2018-04-06T07:17:21.412Z,101622.20
2018-04-06T07:19:47.369Z,101624.91
2018-04-06T07:22:13.324Z,101617.78
2018-04-06T07:24:39.392Z,101612.24
2018-04-06T07:27:05.425Z,101608.17
2018-04-06T07:29:31.405Z,101604.81
2018-04-06T07:31:57.364Z,101603.72
2018-04-06T07:34:23.315Z,101602.63
2018-04-06T07:36:49.344Z,101607.16
2018-04-06T07:39:15.292Z,101605.80
2018-04-06T07:41:41.252Z,101612.41
2018-04-06T07:44:07.227Z,101604.02
2018-04-06T07:46:33.180Z,101607.72
2018-04-06T07:48:59.130Z,101607.05
2018-04-06T07:51:25.082Z,101605.69
2018-04-06T07:53:51.049Z,101602.93
2018-04-06T07:56:17.003Z,101600.41
2018-04-06T07:58:42.977Z,101596.04
2018-04-06T08:01:08.933Z,101598.78
2018-04-06T08:03:34.898Z,101590.45
2018-04-06T08:06:01.108Z,101588.30
2018-04-06T08:08:27.085Z,101580.53
2018-04-06T08:10:53.146Z,101581.88
2018-04-06T08:13:19.086Z,101583.51
2018-04-06T08:15:45.153Z,101588.97
2018-04-06T08:18:11.199Z,101588.83
2018-04-06T08:20:37.222Z,101588.78
2018-04-06T08:23:03.163Z,101586.30
2018-04-06T08:25:29.249Z,101598.78
2018-04-06T08:27:55.198Z,101587.85
2018-04-06T08:30:21.157Z,101598.49
2018-04-06T08:32:47.121Z,101594.15
2018-04-06T08:35:13.094Z,101586.80
2018-04-06T08:37:39.053Z,101582.72
2018-04-06T08:40:05.003Z,101585.81
2018-04-06T08:42:30.985Z,101585.24
2018-04-06T08:44:56.919Z,101582.23
2018-04-06T08:47:22.866Z,101588.64
2018-04-06T08:49:48.838Z,101586.86
2018-04-06T08:52:14.796Z,101584.49
2018-04-06T08:54:40.760Z,101574.98
2018-04-06T08:57:06.697Z,101571.02
2018-04-06T08:59:32.663Z,101565.44
2018-04-06T09:01:58.666Z,101565.86
2018-04-06T09:04:24.618Z,101574.31
2018-04-06T09:06:50.594Z,101566.12
2018-04-06T09:09:16.565Z,101573.41
2018-04-06T09:11:42.491Z,101562.09
2018-04-06T09:14:08.455Z,101566.80
2018-04-06T09:16:34.390Z,101562.54
2018-04-06T09:19:00.351Z,101561.26
2018-04-06T09:21:26.289Z,101551.94
2018-04-06T09:23:52.269Z,101546.17
2018-04-06T09:26:18.221Z,101548.25
2018-04-06T09:28:44.178Z,101549.45
2018-04-06T09:31:10.129Z,101539.27
2018-04-06T09:33:36.099Z,101536.55
2018-04-06T09:36:02.058Z,101527.58
2018-04-06T09:38:28.000Z,101530.67
2018-04-06T09:40:53.941Z,101529.46
2018-04-06T09:43:19.913Z,101527.05
2018-04-06T09:45:45.897Z,101523.31
2018-04-06T09:48:11.834Z,101518.27
2018-04-06T09:50:37.834Z,101520.63
2018-04-06T09:53:03.793Z,101514.52
2018-04-06T09:55:29.756Z,101503.66
2018-04-06T09:57:55.702Z,101516.19
2018-04-06T10:00:21.662Z,101505.09
2018-04-06T10:02:47.607Z,101510.42
2018-04-06T10:05:13.557Z,101506.57
2018-04-06T10:07:39.510Z,101508.80
2018-04-06T10:10:05.458Z,101498.58
2018-04-06T10:12:31.417Z,101505.55
2018-04-06T10:14:57.353Z,101495.83
2018-04-06T10:17:23.385Z,101483.22
2018-04-06T10:19:49.334Z,101485.08
2018-04-06T10:22:15.278Z,101493.83
2018-04-06T10:24:41.246Z,101493.40
2018-04-06T10:27:07.193Z,101488.55
2018-04-06T10:29:33.149Z,101487.48
2018-04-06T10:31:59.177Z,101490.77
2018-04-06T10:34:25.140Z,101483.18
2018-04-06T10:36:51.085Z,101484.84
2018-04-06T10:39:17.023Z,101474.69
2018-04-06T10:41:42.957Z,101478.95
2018-04-06T10:44:08.901Z,101473.67
2018-04-06T10:46:35.018Z,101470.20
2018-04-06T10:49:00.990Z,101461.09
2018-04-06T10:51:26.925Z,101461.81
2018-04-06T10:53:52.909Z,101456.36
2018-04-06T10:56:18.846Z,101455.19
2018-04-06T10:58:44.805Z,101450.52
2018-04-06T11:01:10.846Z,101447.66
2018-04-06T11:03:36.811Z,101450.33
2018-04-06T11:06:02.796Z,101445.36
2018-04-06T11:08:28.741Z,101441.08
2018-04-06T11:10:54.719Z,101442.67
2018-04-06T11:13:20.654Z,101435.31
2018-04-06T11:15:46.612Z,101436.39
2018-04-06T11:18:12.581Z,101428.33
2018-04-06T11:20:38.531Z,101432.28
2018-04-06T11:23:04.527Z,101425.05
2018-04-06T11:25:30.414Z,101426.52
2018-04-06T11:27:56.368Z,101429.49
2018-04-06T11:30:22.349Z,101425.61
2018-04-06T11:32:48.277Z,101420.10
2018-04-06T11:35:14.237Z,101421.23
2018-04-06T11:37:40.203Z,101411.18
2018-04-06T11:40:06.140Z,101404.66
2018-04-06T11:42:32.106Z,101400.30
2018-04-06T11:44:58.055Z,101401.33
2018-04-06T11:47:24.022Z,101385.50
2018-04-06T11:49:49.963Z,101382.62
2018-04-06T11:52:15.936Z,101382.99
2018-04-06T11:54:41.885Z,101377.14
2018-04-06T11:57:07.848Z,101367.68
2018-04-06T11:59:33.791Z,101370.88
2018-04-06T12:01:59.734Z,101356.39
2018-04-06T12:04:25.698Z,101348.52
2018-04-06T12:06:51.639Z,101347.09
2018-04-06T12:09:17.573Z,101339.86
2018-04-06T12:11:43.599Z,101346.74
2018-04-06T12:14:09.574Z,101337.84
2018-04-06T12:16:35.520Z,101337.28
2018-04-06T12:19:01.526Z,101322.27
2018-04-06T12:21:27.470Z,101312.94
2018-04-06T12:23:53.422Z,101315.25
2018-04-06T12:26:19.394Z,101302.07
2018-04-06T12:28:45.426Z,101297.02
2018-04-06T12:31:11.404Z,101294.50
2018-04-06T12:33:37.351Z,101295.21
2018-04-06T12:36:03.301Z,101288.39
2018-04-06T12:38:29.250Z,101282.25
2018-04-06T12:40:55.265Z,101275.20
2018-04-06T12:43:21.222Z,101278.87
2018-04-06T12:45:47.185Z,101267.87
2018-04-06T12:48:13.150Z,101261.91
2018-04-06T12:50:39.141Z,101249.60
2018-04-06T12:53:05.102Z,101249.33
2018-04-06T12:55:31.060Z,101250.93
2018-04-06T12:57:57.057Z,101244.11
2018-04-06T13:00:23.001Z,101246.55
2018-04-06T13:02:48.957Z,101246.55
2018-04-06T13:05:14.902Z,101236.81
2018-04-06T13:07:40.917Z,101237.50
2018-04-06T13:10:06.879Z,101239.38
2018-04-06T13:12:32.885Z,101238.92
2018-04-06T13:14:58.830Z,101237.94
2018-04-06T13:17:24.782Z,101231.25
2018-04-06T13:19:50.763Z,101217.42
2018-04-06T13:22:16.693Z,101202.06
2018-04-06T13:24:42.666Z,101201.16
2018-04-06T13:27:08.630Z,101201.94
2018-04-06T13:29:34.573Z,101186.97
2018-04-06T13:32:00.566Z,101195.66
2018-04-06T13:34:26.510Z,101207.55
2018-04-06T13:36:52.457Z,101202.39
2018-04-06T13:39:18.425Z,101189.97
2018-04-06T13:41:44.365Z,101186.70
2018-04-06T13:44:10.314Z,101187.74
2018-04-06T13:46:36.360Z,101179.66
2018-04-06T13:49:02.363Z,101168.92
2018-04-06T13:51:28.299Z,101158.61
2018-04-06T13:53:54.240Z,101159.84
2018-04-06T13:56:20.184Z,101152.83
2018-04-06T13:58:46.120Z,101141.65
2018-04-06T14:01:12.125Z,101141.73
2018-04-06T14:03:38.046Z,101140.45
2018-04-06T14:06:04.021Z,101134.55
2018-04-06T14:08:29.977Z,101143.22
2018-04-06T14:10:55.916Z,101133.98
2018-04-06T14:13:21.855Z,101126.55
2018-04-06T14:15:47.885Z,101123.83
2018-04-06T14:18:13.841Z,101123.55
2018-04-06T14:20:39.805Z,101115.16
2018-04-06T14:23:05.771Z,101116.28
2018-04-06T14:25:31.735Z,101108.30
2018-04-06T14:27:57.674Z,101110.86
2018-04-06T14:30:23.613Z,101110.53
2018-04-06T14:32:49.573Z,101098.48
2018-04-06T14:35:15.516Z,101086.06
2018-04-06T14:37:41.501Z,101083.10
2018-04-06T14:40:07.459Z,101082.59
2018-04-06T14:42:33.415Z,101085.64
2018-04-06T14:44:59.350Z,101069.72
2018-04-06T14:47:25.290Z,101070.01
2018-04-06T14:49:51.270Z,101066.75
2018-04-06T14:52:17.241Z,101065.55
2018-04-06T14:54:43.174Z,101070.14
2018-04-06T14:57:09.231Z,101064.11
2018-04-06T14:59:35.232Z,101058.02
2018-04-06T15:02:01.241Z,101053.66
2018-04-06T15:04:27.184Z,101047.63
2018-04-06T15:06:53.532Z,101049.17
2018-04-06T15:09:19.470Z,101043.22
2018-04-06T15:11:45.428Z,101041.37
2018-04-06T15:14:11.382Z,101034.27
2018-04-06T15:16:37.329Z,101038.73
2018-04-06T15:19:03.267Z,101025.81
2018-04-06T15:21:30.229Z,101040.52
2018-04-06T15:23:56.214Z,101027.86
2018-04-06T15:26:22.149Z,101025.30
2018-04-06T15:28:48.110Z,101018.48
2018-04-06T15:31:14.056Z,101033.34
2018-04-06T15:33:39.996Z,101025.66
2018-04-06T15:36:05.970Z,101022.78
2018-04-06T15:38:31.930Z,101021.67
2018-04-06T15:40:57.871Z,101010.44
2018-04-06T15:43:23.824Z,101004.61
2018-04-06T15:45:49.785Z,101010.98
2018-04-06T15:48:15.748Z,101002.94
2018-04-06T15:50:41.693Z,101004.52
2018-04-06T15:53:07.642Z,101001.41
2018-04-06T15:55:33.613Z,101006.13
2018-04-06T15:57:59.614Z,101012.23
2018-04-06T16:00:25.555Z,101008.06
2018-04-06T16:02:51.503Z,100997.05
2018-04-06T16:05:17.455Z,100990.21
2018-04-06T16:07:43.393Z,100994.95
2018-04-06T16:10:09.343Z,100991.32
2018-04-06T16:12:35.330Z,100996.14
2018-04-06T16:15:01.269Z,100995.48
2018-04-06T16:17:27.229Z,100995.44
2018-04-06T16:19:53.227Z,100991.82
2018-04-06T16:22:19.166Z,100992.39
2018-04-06T16:24:45.232Z,100983.86
2018-04-06T16:27:11.258Z,100988.48
2018-04-06T16:29:37.215Z,100982.59
2018-04-06T16:32:03.165Z,100982.86
2018-04-06T16:34:29.118Z,100977.39
2018-04-06T16:36:55.057Z,100977.27
2018-04-06T16:39:21.018Z,100986.06
2018-04-06T16:41:46.994Z,100975.98
2018-04-06T16:44:12.941Z,100977.72
2018-04-06T16:46:39.000Z,100971.90
2018-04-06T16:49:04.946Z,100966.42
2018-04-06T16:51:30.898Z,100962.30
2018-04-06T16:53:56.858Z,100966.25
2018-04-06T16:56:22.817Z,100962.73
2018-04-06T16:58:48.857Z,100963.61
2018-04-06T17:01:14.902Z,100966.75
2018-04-06T17:03:40.838Z,100969.31
2018-04-06T17:06:06.780Z,100967.24
2018-04-06T17:08:32.749Z,100964.60
2018-04-06T17:10:58.688Z,100966.05
2018-04-06T17:13:24.661Z,100968.69
2018-04-06T17:15:50.627Z,100977.67
2018-04-06T17:18:16.615Z,100976.67
2018-04-06T17:20:42.571Z,100965.37
2018-04-06T17:23:08.516Z,100972.86
2018-04-06T17:25:34.499Z,100972.03
2018-04-06T17:28:00.464Z,100973.14
2018-04-06T17:30:26.406Z,100974.05
2018-04-06T17:32:52.367Z,100973.13
2018-04-06T17:35:18.310Z,100968.69
2018-04-06T17:37:44.306Z,100970.17
2018-04-06T17:40:10.289Z,100973.73
2018-04-06T17:42:36.261Z,100978.92
2018-04-06T17:45:02.199Z,100978.64
2018-04-06T17:47:28.177Z,100981.97
2018-04-06T17:49:54.127Z,100985.86
2018-04-06T17:52:20.088Z,100972.41
2018-04-06T17:54:46.031Z,100981.23
2018-04-06T17:57:11.966Z,100974.55
2018-04-06T17:59:37.928Z,100974.18
2018-04-06T18:02:03.865Z,100970.59
2018-04-06T18:04:29.819Z,100973.72
2018-04-06T18:06:55.793Z,100969.73
2018-04-06T18:09:21.742Z,100965.91
2018-04-06T18:11:47.689Z,100970.48
2018-04-06T18:14:13.631Z,100964.11
2018-04-06T18:16:39.574Z,100965.23
2018-04-06T18:19:05.553Z,100975.03
2018-04-06T18:21:31.500Z,100973.42
2018-04-06T18:23:57.457Z,100976.91
2018-04-06T18:26:23.442Z,100974.83
2018-04-06T18:28:49.421Z,100967.38
2018-04-06T18:31:15.373Z,100964.48
2018-04-06T18:33:41.401Z,100964.53
2018-04-06T18:36:07.379Z,100960.52
2018-04-06T18:38:33.343Z,100963.16
2018-04-06T18:40:59.286Z,100964.69
2018-04-06T18:43:25.261Z,100957.09
2018-04-06T18:45:51.213Z,100958.98
2018-04-06T18:48:17.197Z,100961.22
2018-04-06T18:50:43.198Z,100955.44
2018-04-06T18:53:09.134Z,100953.55
2018-04-06T18:55:35.096Z,100952.80
2018-04-06T18:58:01.077Z,100955.64
2018-04-06T19:00:27.042Z,100960.97
2018-04-06T19:02:52.976Z,100958.63
2018-04-06T19:05:18.930Z,100949.05
2018-04-06T19:07:44.879Z,100950.00
2018-04-06T19:10:10.876Z,100946.42
2018-04-06T19:12:36.831Z,100946.20
2018-04-06T19:15:02.803Z,100935.44
2018-04-06T19:17:28.738Z,100936.77
2018-04-06T19:19:54.722Z,100942.05
2018-04-06T19:22:20.689Z,100943.07
2018-04-06T19:24:47.438Z,100939.81
2018-04-06T19:27:13.372Z,100935.35
2018-04-06T19:29:39.322Z,100933.05
2018-04-06T19:32:05.271Z,100925.34
2018-04-06T19:34:31.235Z,100921.05
2018-04-06T19:36:57.209Z,100919.39
2018-04-06T19:39:23.206Z,100921.05
2018-04-06T19:41:49.165Z,100915.54
2018-04-06T19:44:15.137Z,100921.87
2018-04-06T19:46:41.087Z,100909.38
2018-04-06T19:49:07.038Z,100911.72
2018-04-06T19:51:33.059Z,100914.11
2018-04-06T19:53:59.025Z,100909.88
2018-04-06T19:56:24.975Z,100903.41
2018-04-06T19:58:50.953Z,100905.02
2018-04-06T20:01:16.907Z,100904.18
2018-04-06T20:03:42.964Z,100906.86
2018-04-06T20:06:08.927Z,100904.22
2018-04-06T20:08:34.903Z,100906.73
2018-04-06T20:11:00.859Z,100900.20
2018-04-06T20:13:26.835Z,100895.90
2018-04-06T20:15:52.834Z,100893.91
2018-04-06T20:18:18.782Z,100886.50
2018-04-06T20:20:44.718Z,100883.46
2018-04-06T20:23:10.666Z,100880.13
2018-04-06T20:25:36.617Z,100872.82
2018-04-06T20:28:02.595Z,100883.30
2018-04-06T20:33:10.590Z,100868.58
2018-04-06T20:35:36.545Z,100859.36
2018-04-06T20:38:02.499Z,100860.84
2018-04-06T20:40:28.452Z,100856.57
2018-04-06T20:42:54.430Z,100854.44
2018-04-06T20:45:20.425Z,100858.47
2018-04-06T20:47:46.451Z,100847.77
2018-04-06T20:50:12.420Z,100850.86
2018-04-06T20:52:38.379Z,100856.55
2018-04-06T20:55:04.369Z,100851.88
2018-04-06T20:57:30.336Z,100842.92
2018-04-06T20:59:56.278Z,100846.05
2018-04-06T21:02:22.241Z,100850.36
2018-04-06T21:04:48.203Z,100845.47
2018-04-06T21:07:14.179Z,100845.23
2018-04-06T21:09:40.125Z,100841.68
2018-04-06T21:12:06.085Z,100835.10
2018-04-06T21:14:32.064Z,100836.34
2018-04-06T21:16:58.219Z,100833.28
2018-04-06T21:19:24.179Z,100835.02
2018-04-06T21:21:50.142Z,100827.81
2018-04-06T21:24:16.092Z,100825.39
2018-04-06T21:26:42.055Z,100826.98
2018-04-06T21:29:07.992Z,100821.77
2018-04-06T21:31:33.984Z,100819.74
2018-04-06T21:33:59.926Z,100817.77
2018-04-06T21:36:25.904Z,100816.48
2018-04-06T21:38:51.860Z,100816.23
2018-04-06T21:41:17.869Z,100819.20
2018-04-06T21:43:43.822Z,100812.71
2018-04-06T21:46:09.786Z,100806.28
2018-04-06T21:48:35.718Z,100808.53
2018-04-06T21:51:01.776Z,100801.84
2018-04-06T21:53:27.792Z,100802.10
2018-04-06T21:55:53.834Z,100795.46
2018-04-06T21:58:19.784Z,100800.66
2018-04-06T22:00:45.748Z,100797.69
2018-04-06T22:03:11.811Z,100791.50
2018-04-06T22:05:37.769Z,100794.09
2018-04-06T22:08:03.726Z,100793.31
2018-04-06T22:10:29.719Z,100799.75
2018-04-06T22:12:55.663Z,100798.31
2018-04-06T22:15:21.618Z,100797.79
2018-04-06T22:17:47.557Z,100794.70
2018-04-06T22:20:13.529Z,100799.66
2018-04-06T22:22:39.465Z,100801.25
2018-04-06T22:25:05.450Z,100800.06
2018-04-06T22:27:31.386Z,100799.44
2018-04-06T22:29:57.352Z,100795.05
2018-04-06T22:32:23.289Z,100806.23
2018-04-06T22:34:49.237Z,100805.50
2018-04-06T22:37:15.339Z,100801.39
2018-04-06T22:39:41.298Z,100808.16
2018-04-06T22:42:07.316Z,100805.34
2018-04-06T22:44:33.254Z,100805.43
2018-04-06T22:46:59.212Z,100789.59
2018-04-06T22:49:25.166Z,100801.11
2018-04-06T22:51:51.203Z,100799.66
2018-04-06T22:54:17.151Z,100798.52
2018-04-06T22:56:43.110Z,100795.40
2018-04-06T22:59:09.055Z,100799.16
2018-04-06T23:01:35.003Z,100792.37
2018-04-06T23:04:00.960Z,100790.57
2018-04-06T23:06:26.929Z,100797.31
2018-04-06T23:08:52.885Z,100794.89
2018-04-06T23:11:18.833Z,100786.37
2018-04-06T23:13:44.793Z,100790.36
2018-04-06T23:16:10.737Z,100791.12
2018-04-06T23:18:36.693Z,100788.48
2018-04-06T23:21:02.639Z,100790.91
2018-04-06T23:23:28.606Z,100784.64
2018-04-06T23:25:54.558Z,100781.12
2018-04-06T23:28:20.536Z,100786.88
2018-04-06T23:30:46.482Z,100777.97
2018-04-06T23:33:12.458Z,100774.91
2018-04-06T23:35:38.426Z,100772.58
2018-04-06T23:38:04.386Z,100772.14
2018-04-06T23:40:30.353Z,100769.24
2018-04-06T23:42:56.322Z,100771.06
2018-04-06T23:45:22.315Z,100773.06
2018-04-06T23:47:48.246Z,100772.16
2018-04-06T23:50:14.222Z,100777.38
2018-04-06T23:52:40.210Z,100775.64
2018-04-06T23:55:06.149Z,100773.17
2018-04-06T23:57:32.213Z,100772.40
2018-04-06T23:59:58.154Z,100775.83
